VTBDVRMM

Guest
Details From VTBD - Bangkok Don Mueang Intl
To VRMM - Male Intl
Flight Number -
Tags Decoded
Created
Modified
Stats Distance 1,745 nm / 3,232 km
Max Altitude 0 ft / 0 m
Waypoints 6
Social Downloads 5
Likes 0
Share VATSIM

Download

Looking for another format? Having issues loading an existing format? Contact us
Advertisement - Login to hide

Notes

Decoded

Route

VTBD BKK05 CC AQAXA MLE09 VRMM

ID Type Via Altitude Latitude Longitude Leg Dist Tot Dist Heading (true) Name
O VTBD APT - 0 ft / 0 m 13.89960˚ 100.60162˚ - 0 nm - -
BKK05 FIX - 0 ft / 0 m 13.82331˚ 100.54951˚ 5 nm 5 nm 214° / 214° -
CC FIX - 0 ft / 0 m 7.22500˚ 81.00000˚ 1219 nm 1225 nm 253° / 249° -
AQAXA FIX - 0 ft / 0 m 3.59083˚ 74.10972˚ 466 nm 1691 nm 242° / 242° -
MLE09 FIX - 0 ft / 0 m 4.04256˚ 73.53067˚ 44 nm 1735 nm 308° / 308° -
O VRMM APT - 0 ft / 0 m 4.20629˚ 73.52889˚ 9 nm 1745 nm 359° / 359° -

Altitude Profile

Advertisement - Login to hide

Weather


0- 5 10 15 20 25 30 35+ Temperature / ° C

Clouds and Precipitation
Forecast for 2017-12-11 06:00 UTC. Updated an hour ago

Ground ~20,000 ft ~40,000 ft Winds

VTBD

Details ICAO VTBD (DMK)
Name Bangkok Don Mueang Intl
Region Thailand
Timezone Asia/Bangkok (UTC+7.0)
Stats Elevation 9 ft / 3 m (AMSL)
Location 13.912597° 100.606799°
Runways 2
Magnetic Variation 0.582° W

METAR

VTBD 110400Z 15005KT 060V210 CAVOK 31/21 Q1014 NOSIG

Decode

TAF

TAF VTBD 102300Z 1100/1206 12003KT 6000 FEW040 BECMG 1102/1104 06008KT 9999 BECMG 1116/1118 35005KT BECMG 1202/1204 06008KT

Decode

Departure Runways

ID Width Length Bearing (true) Bearing (mag) Surface Threshold Offset Overrun Length
03L 197 ft / 60 m 12,186 ft / 3,714 m 28.55° 29.13° Asphalt 0 ft / 0 m 492 ft / 150 m
03R 148 ft / 45 m 11,520 ft / 3,511 m 28.50° 29.08° Asphalt 0 ft / 0 m 348 ft / 106 m
21L 148 ft / 45 m 11,520 ft / 3,511 m 208.50° 209.08° Asphalt 1,145 ft / 349 m 180 ft / 55 m
21R 197 ft / 60 m 12,186 ft / 3,714 m 208.55° 209.13° Asphalt 0 ft / 0 m 492 ft / 150 m

VRMM

Details ICAO VRMM (MLE)
Name MALE INTL
Region Maldives
Timezone Indian/Maldives (UTC+5.0)
Stats Elevation 6 ft / 2 m (AMSL)
Location 4.191832° 73.529128°
Runways 1
Magnetic Variation 2.835° W

METAR

VRMM 110300Z 09004KT 9999 FEW020 29/23 Q1013 NOSIG

Decode

TAF

TAF VRMM 102300Z 1100/1206 VRB02KT 9999 FEW018 TEMPO 1102/1108 FEW019CB

Decode

Destination Runways

ID Width Length Bearing (true) Bearing (mag) Surface Threshold Offset Overrun Length
18 148 ft / 45 m 10,556 ft / 3,218 m 179.06° 181.89° Asphalt 328 ft / 100 m 201 ft / 61 m
36 148 ft / 45 m 10,556 ft / 3,218 m 359.06° 1.89° Asphalt 952 ft / 290 m 238 ft / 73 m

Approach Navaids

Runway Type Ident Frequency Range Bearing (true) Bearing (mag) Slope Elevation
36 Localiser IML 108.70 MHz 18 nm / 33 km 359.58° 2.41° - 5 ft / 2 m (AMSL)
36 Glidescope IML 108.70 MHz 10 nm / 19 km 359.06° 1.89° 3.00° 5 ft / 2 m (AMSL)
36 DME IML 108.70 MHz 18 nm / 33 km - - - 22 ft / 7 m (AMSL)

Popular Alternatives